createdAt,value
2022-12-18T00:00:11.456Z,-7.02
2022-12-18T00:02:42.243Z,-6.89
2022-12-18T00:05:10.830Z,-6.74
2022-12-18T00:07:39.165Z,-6.57
2022-12-18T00:10:08.485Z,-6.42
2022-12-18T00:12:38.710Z,-6.91
2022-12-18T00:15:07.573Z,-6.83
2022-12-18T00:17:37.022Z,-6.86
2022-12-18T00:20:05.512Z,-7.02
2022-12-18T00:22:33.432Z,-6.96
2022-12-18T00:25:03.430Z,-6.86
2022-12-18T00:27:33.619Z,-6.96
2022-12-18T00:30:01.481Z,-7.07
2022-12-18T00:32:29.394Z,-7.25
2022-12-18T00:35:00.694Z,-7.40
2022-12-18T00:37:28.723Z,-7.15
2022-12-18T00:39:59.679Z,-7.00
2022-12-18T00:42:45.280Z,-6.92
2022-12-18T00:45:13.474Z,-6.77
2022-12-18T00:47:41.895Z,-6.98
2022-12-18T00:50:13.655Z,-6.86
2022-12-18T00:52:43.590Z,-6.79
2022-12-18T00:55:12.245Z,-6.79
2022-12-18T00:57:40.280Z,-6.89
2022-12-18T01:00:12.262Z,-6.98
2022-12-18T01:02:40.516Z,-7.36
2022-12-18T01:05:12.077Z,-7.07
2022-12-18T01:07:43.830Z,-6.93
2022-12-18T01:10:13.571Z,-6.99
2022-12-18T01:12:41.584Z,-7.04
2022-12-18T01:15:11.716Z,-7.03
2022-12-18T01:17:42.080Z,-7.14
2022-12-18T01:20:12.852Z,-7.23
2022-12-18T01:22:40.791Z,-7.32
2022-12-18T01:25:10.893Z,-7.14
2022-12-18T01:27:38.760Z,-7.00
2022-12-18T01:30:10.168Z,-6.87
2022-12-18T01:32:38.167Z,-6.86
2022-12-18T01:35:07.451Z,-6.99
2022-12-18T01:37:35.561Z,-6.83
2022-12-18T01:40:03.378Z,-7.02
2022-12-18T01:42:32.656Z,-7.27
2022-12-18T01:45:04.225Z,-7.35
2022-12-18T01:47:38.661Z,-7.27
2022-12-18T01:50:11.138Z,-6.95
2022-12-18T01:52:43.257Z,-7.04
2022-12-18T01:55:13.115Z,-6.84
2022-12-18T01:57:42.995Z,-6.74
2022-12-18T02:00:16.298Z,-6.60
2022-12-18T02:02:46.096Z,-6.58
2022-12-18T02:05:17.682Z,-6.52
2022-12-18T02:07:57.498Z,-6.43
2022-12-18T02:10:33.730Z,-6.91
2022-12-18T02:13:14.019Z,-6.70
2022-12-18T02:15:49.107Z,-6.61
2022-12-18T02:18:22.770Z,-6.86
2022-12-18T02:21:00.882Z,-6.70
2022-12-18T02:23:47.724Z,-6.90
2022-12-18T02:26:21.891Z,-6.85
2022-12-18T02:28:56.790Z,-6.86
2022-12-18T02:31:29.287Z,-7.37
2022-12-18T02:34:00.714Z,-7.27
2022-12-18T02:36:30.937Z,-7.36
2022-12-18T02:39:01.196Z,-7.07
2022-12-18T02:41:31.995Z,-6.91
2022-12-18T02:44:04.060Z,-6.78
2022-12-18T02:46:38.626Z,-6.66
2022-12-18T02:49:24.103Z,-6.75
2022-12-18T02:51:57.701Z,-6.74
2022-12-18T02:54:57.905Z,-6.68
2022-12-18T02:57:35.924Z,-6.77
2022-12-18T03:00:10.787Z,-6.59
2022-12-18T03:02:43.858Z,-6.48
2022-12-18T03:05:16.193Z,-6.47
2022-12-18T03:07:53.700Z,-6.39
2022-12-18T03:10:29.590Z,-6.36
2022-12-18T03:13:04.175Z,-6.38
2022-12-18T03:15:37.783Z,-6.35
2022-12-18T03:18:15.331Z,-6.36
2022-12-18T03:20:45.534Z,-6.34
2022-12-18T03:23:22.297Z,-6.44
2022-12-18T03:25:56.422Z,-6.38
2022-12-18T03:28:33.625Z,-6.31
2022-12-18T03:31:07.754Z,-6.38
2022-12-18T03:33:42.176Z,-6.27
2022-12-18T03:36:10.710Z,-6.51
2022-12-18T03:38:40.035Z,-6.43
2022-12-18T03:41:21.765Z,-6.49
2022-12-18T03:44:18.383Z,-6.42
2022-12-18T03:46:55.739Z,-6.52
2022-12-18T03:49:30.144Z,-6.51
2022-12-18T03:52:05.706Z,-6.43
2022-12-18T03:54:36.463Z,-6.59
2022-12-18T03:57:15.798Z,-6.60
2022-12-18T03:59:46.913Z,-6.57
2022-12-18T04:02:19.005Z,-6.47
2022-12-18T04:04:50.356Z,-6.44
2022-12-18T04:07:20.429Z,-6.47
2022-12-18T04:09:50.494Z,-6.42
2022-12-18T04:12:19.711Z,-6.36
2022-12-18T04:14:50.896Z,-6.49
2022-12-18T04:17:18.867Z,-6.49
2022-12-18T04:19:46.836Z,-6.54
2022-12-18T04:22:14.967Z,-6.35
2022-12-18T04:24:47.449Z,-6.54
2022-12-18T04:27:23.923Z,-6.50
2022-12-18T04:29:55.798Z,-6.51
2022-12-18T04:32:23.896Z,-6.45
2022-12-18T04:34:51.891Z,-6.48
2022-12-18T04:37:19.896Z,-6.54
2022-12-18T04:39:50.329Z,-6.72
2022-12-18T04:42:25.846Z,-6.74
2022-12-18T04:44:55.001Z,-6.68
2022-12-18T04:47:22.830Z,-6.79
2022-12-18T04:49:57.953Z,-6.98
2022-12-18T04:52:25.882Z,-6.88
2022-12-18T04:54:53.780Z,-7.07
2022-12-18T04:57:21.682Z,-6.93
2022-12-18T04:59:49.488Z,-6.92
2022-12-18T05:02:20.883Z,-6.87
2022-12-18T05:04:48.847Z,-6.86
2022-12-18T05:07:16.946Z,-6.84
2022-12-18T05:09:44.849Z,-6.84
2022-12-18T05:12:13.123Z,-6.93
2022-12-18T05:14:40.930Z,-7.03
2022-12-18T05:17:08.855Z,-7.00
2022-12-18T05:19:38.020Z,-6.76
2022-12-18T05:22:08.649Z,-6.60
2022-12-18T05:24:36.563Z,-6.56
2022-12-18T05:27:04.675Z,-6.57
2022-12-18T05:29:32.550Z,-6.67
2022-12-18T05:32:00.527Z,-6.62
2022-12-18T05:34:28.485Z,-6.71
2022-12-18T05:36:57.757Z,-6.60
2022-12-18T05:39:25.587Z,-6.83
2022-12-18T05:41:53.547Z,-6.95
2022-12-18T05:44:23.465Z,-6.80
2022-12-18T05:46:51.343Z,-6.82
2022-12-18T05:49:19.255Z,-7.38
2022-12-18T05:51:47.188Z,-7.11
2022-12-18T05:54:16.371Z,-7.04
2022-12-18T05:56:48.485Z,-7.07
2022-12-18T05:59:16.714Z,-7.08
2022-12-18T06:01:45.169Z,-6.89
2022-12-18T06:04:13.361Z,-6.86
2022-12-18T06:06:43.497Z,-6.88
2022-12-18T06:09:11.534Z,-6.82
2022-12-18T06:11:40.831Z,-6.93
2022-12-18T06:14:09.265Z,-6.89
2022-12-18T06:16:37.205Z,-7.09
2022-12-18T06:19:07.491Z,-7.04
2022-12-18T06:21:35.914Z,-7.25
2022-12-18T06:24:04.211Z,-7.20
2022-12-18T06:26:32.246Z,-7.39
2022-12-18T06:29:01.488Z,-7.23
2022-12-18T06:31:29.515Z,-7.26
2022-12-18T06:33:58.183Z,-7.34
2022-12-18T06:36:26.155Z,-7.38
2022-12-18T06:38:56.609Z,-7.37
2022-12-18T06:41:24.518Z,-7.38
2022-12-18T06:43:59.551Z,-7.39
2022-12-18T06:46:29.278Z,-7.28
2022-12-18T06:48:57.176Z,-7.28
2022-12-18T06:51:25.827Z,-7.16
2022-12-18T06:53:53.698Z,-7.31
2022-12-18T06:56:21.522Z,-7.27
2022-12-18T06:58:53.019Z,-7.29
2022-12-18T07:01:21.071Z,-7.32
2022-12-18T07:03:54.219Z,-7.07
2022-12-18T07:06:23.758Z,-7.12
2022-12-18T07:08:56.010Z,-7.20
2022-12-18T07:11:24.186Z,-7.23
2022-12-18T07:13:55.364Z,-7.19
2022-12-18T07:16:25.585Z,-7.00
2022-12-18T07:18:57.068Z,-7.19
2022-12-18T07:21:26.280Z,-7.20
2022-12-18T07:23:54.252Z,-7.21
2022-12-18T07:26:23.450Z,-7.20
2022-12-18T07:28:51.828Z,-7.40
2022-12-18T07:31:22.921Z,-7.63
2022-12-18T07:33:51.900Z,-8.11
2022-12-18T07:36:25.622Z,-8.20
2022-12-18T07:38:57.001Z,-8.15
2022-12-18T07:41:25.008Z,-8.05
2022-12-18T07:43:52.856Z,-7.75
2022-12-18T07:46:20.875Z,-7.69
2022-12-18T07:48:50.097Z,-7.34
2022-12-18T07:51:19.234Z,-7.15
2022-12-18T07:53:52.122Z,-6.83
2022-12-18T07:56:27.830Z,-6.87
2022-12-18T07:58:59.259Z,-7.25
2022-12-18T08:01:31.959Z,-6.94
2022-12-18T08:04:00.140Z,-6.76
2022-12-18T08:06:27.970Z,-6.58
2022-12-18T08:08:58.217Z,-6.24
2022-12-18T08:11:27.751Z,-5.86
2022-12-18T08:13:55.880Z,-5.62
2022-12-18T08:16:26.125Z,-5.89
2022-12-18T08:18:54.718Z,-5.84
2022-12-18T08:21:24.794Z,-5.85
2022-12-18T08:23:53.587Z,-6.09
2022-12-18T08:26:24.015Z,-6.08
2022-12-18T08:28:52.648Z,-5.96
2022-12-18T08:31:21.086Z,-5.50
2022-12-18T08:33:50.703Z,-5.26
2022-12-18T08:36:21.518Z,-5.00
2022-12-18T08:38:51.952Z,-5.03
2022-12-18T08:41:20.366Z,-4.65
2022-12-18T08:44:07.389Z,-4.66
2022-12-18T08:46:37.868Z,-4.86
2022-12-18T08:49:06.576Z,-4.89
2022-12-18T08:51:37.061Z,-4.76
2022-12-18T08:54:06.335Z,-4.59
2022-12-18T08:56:35.043Z,-4.57
2022-12-18T08:59:05.351Z,-4.18
2022-12-18T09:01:33.393Z,-3.99
2022-12-18T09:04:02.251Z,-3.64
2022-12-18T09:06:30.146Z,-3.97
2022-12-18T09:08:59.157Z,-3.84
2022-12-18T09:11:29.442Z,-3.96
2022-12-18T09:13:58.174Z,-4.17
2022-12-18T09:16:32.288Z,-4.16
2022-12-18T09:19:01.471Z,-3.95
2022-12-18T09:21:31.629Z,-3.97
2022-12-18T09:24:01.207Z,-4.03
2022-12-18T09:26:29.393Z,-3.96
2022-12-18T09:28:57.251Z,-4.11
2022-12-18T09:31:27.101Z,-3.82
2022-12-18T09:33:57.332Z,-4.04
2022-12-18T09:36:25.303Z,-3.83
2022-12-18T09:38:54.160Z,-3.89
2022-12-18T09:41:41.517Z,-3.89
2022-12-18T09:44:21.589Z,-3.70
2022-12-18T09:47:06.908Z,-3.59
2022-12-18T09:49:38.900Z,-3.78
2022-12-18T09:52:13.595Z,-3.32
2022-12-18T09:54:46.589Z,-3.42
2022-12-18T09:57:18.309Z,-3.27
2022-12-18T09:59:49.972Z,-3.15
2022-12-18T10:02:22.497Z,-2.83
2022-12-18T10:05:04.861Z,-2.89
2022-12-18T10:07:46.044Z,-2.73
2022-12-18T10:10:33.850Z,-2.81
2022-12-18T10:13:11.963Z,-2.76
2022-12-18T10:15:51.222Z,-2.78
2022-12-18T10:18:35.768Z,-2.95
2022-12-18T10:21:12.048Z,-2.38
2022-12-18T10:23:48.949Z,-2.31
2022-12-18T10:26:17.096Z,-2.33
2022-12-18T10:28:45.891Z,-1.99
2022-12-18T10:31:18.500Z,-2.00
2022-12-18T10:33:47.938Z,-1.78
2022-12-18T10:36:15.962Z,-1.61
2022-12-18T10:38:44.634Z,-1.91
2022-12-18T10:41:30.705Z,-1.78
2022-12-18T10:44:17.904Z,-1.66
2022-12-18T10:46:55.484Z,-1.74
2022-12-18T10:49:27.322Z,-1.62
2022-12-18T10:52:09.286Z,-1.78
2022-12-18T10:54:38.938Z,-1.60
2022-12-18T10:57:17.920Z,-1.80
2022-12-18T10:59:53.673Z,-1.56
2022-12-18T11:02:30.247Z,-1.52
2022-12-18T11:04:59.598Z,-0.93
2022-12-18T11:07:27.606Z,-0.78
2022-12-18T11:10:05.398Z,-0.71
2022-12-18T11:12:33.424Z,-0.72
2022-12-18T11:15:02.128Z,-0.78
2022-12-18T11:17:33.870Z,0.29
2022-12-18T11:20:06.679Z,0.03
2022-12-18T11:22:37.161Z,-0.02
2022-12-18T11:25:32.654Z,0.00
2022-12-18T11:27:58.623Z,0.15
2022-12-18T11:30:28.969Z,0.33
2022-12-18T11:33:02.445Z,0.14
2022-12-18T11:36:32.155Z,0.67
2022-12-18T11:39:05.479Z,0.62
2022-12-18T11:42:00.510Z,0.45
2022-12-18T11:44:33.884Z,0.82
2022-12-18T11:47:10.715Z,0.76
2022-12-18T11:49:43.427Z,0.83
2022-12-18T11:52:18.537Z,1.07
2022-12-18T11:54:48.041Z,1.22
2022-12-18T11:57:30.966Z,0.87
2022-12-18T12:00:04.789Z,1.11
2022-12-18T12:03:08.715Z,0.97
2022-12-18T12:05:53.559Z,1.13
2022-12-18T12:08:32.775Z,0.80
2022-12-18T12:11:11.049Z,1.00
2022-12-18T12:13:49.821Z,0.99
2022-12-18T12:16:23.263Z,0.90
2022-12-18T12:19:08.014Z,1.26
2022-12-18T12:21:41.465Z,0.98
2022-12-18T12:24:28.261Z,1.10
2022-12-18T12:27:08.936Z,1.24
2022-12-18T12:29:49.534Z,1.36
2022-12-18T12:32:32.162Z,1.04
2022-12-18T12:35:17.581Z,0.89
2022-12-18T12:37:53.034Z,1.23
2022-12-18T12:40:51.216Z,1.36
2022-12-18T12:43:25.836Z,1.08
2022-12-18T12:45:57.518Z,1.14
2022-12-18T12:48:36.097Z,0.93
2022-12-18T12:51:10.387Z,0.95
2022-12-18T12:53:40.459Z,0.91
2022-12-18T12:56:13.222Z,1.29
2022-12-18T12:58:51.689Z,1.01
2022-12-18T13:01:29.909Z,1.00
2022-12-18T13:04:08.846Z,1.02
2022-12-18T13:06:45.238Z,1.03
2022-12-18T13:09:14.320Z,1.11
2022-12-18T13:12:01.559Z,1.66
2022-12-18T13:14:34.762Z,1.74
2022-12-18T13:17:32.881Z,1.24
2022-12-18T13:20:10.445Z,1.15
2022-12-18T13:22:40.298Z,1.35
2022-12-18T13:25:34.728Z,1.32
2022-12-18T13:28:11.178Z,1.63
2022-12-18T13:30:57.736Z,1.20
2022-12-18T13:34:23.898Z,1.12
2022-12-18T13:36:36.376Z,1.35
2022-12-18T13:39:28.908Z,1.28
2022-12-18T13:42:49.348Z,1.63
2022-12-18T13:45:49.850Z,1.24
2022-12-18T13:48:25.353Z,1.32
2022-12-18T13:51:01.111Z,1.15
2022-12-18T13:53:34.773Z,1.24
2022-12-18T13:56:03.965Z,1.50
2022-12-18T13:58:31.887Z,1.41
2022-12-18T14:01:00.311Z,1.11
2022-12-18T14:03:31.476Z,0.88
2022-12-18T14:06:07.749Z,0.90
2022-12-18T14:08:40.877Z,0.94
2022-12-18T14:11:19.923Z,0.76
2022-12-18T14:13:49.745Z,0.81
2022-12-18T14:16:19.671Z,0.78
2022-12-18T14:18:55.356Z,0.65
2022-12-18T14:21:28.877Z,0.72
2022-12-18T14:24:17.555Z,0.56
2022-12-18T14:26:50.332Z,0.58
2022-12-18T14:29:27.491Z,0.63
2022-12-18T14:32:16.962Z,0.70
2022-12-18T14:34:48.428Z,0.56
2022-12-18T14:37:19.117Z,0.51
2022-12-18T14:39:59.035Z,0.50
2022-12-18T14:42:29.279Z,0.48
2022-12-18T14:45:41.020Z,0.49
2022-12-18T14:48:15.426Z,0.24
2022-12-18T14:50:56.820Z,0.15
2022-12-18T14:53:30.200Z,0.16
2022-12-18T14:55:58.212Z,-0.03
2022-12-18T14:58:26.205Z,0.04
2022-12-18T15:00:55.471Z,-0.12
2022-12-18T15:03:24.228Z,-0.15
2022-12-18T15:05:54.689Z,-0.08
2022-12-18T15:08:36.837Z,-0.09
2022-12-18T15:11:09.013Z,-0.11
2022-12-18T15:13:41.347Z,-0.20
2022-12-18T15:16:14.264Z,-0.21
2022-12-18T15:18:46.132Z,-0.34
2022-12-18T15:21:21.153Z,-0.34
2022-12-18T15:23:51.596Z,-0.37
2022-12-18T15:26:21.684Z,-0.40
2022-12-18T15:28:51.738Z,-0.44
2022-12-18T15:31:26.188Z,-0.49
2022-12-18T15:34:14.356Z,-0.50
2022-12-18T15:36:43.596Z,-0.59
2022-12-18T15:39:14.608Z,-0.61
2022-12-18T15:42:02.616Z,-0.64
2022-12-18T15:44:29.476Z,-0.68
2022-12-18T15:46:58.930Z,-0.67
2022-12-18T15:49:28.909Z,-0.72
2022-12-18T15:52:00.700Z,-0.80
2022-12-18T15:54:46.295Z,-0.80
2022-12-18T15:57:26.583Z,-0.81
2022-12-18T15:59:56.730Z,-0.84
2022-12-18T16:02:24.816Z,-0.86
2022-12-18T16:04:54.888Z,-0.98
2022-12-18T16:07:25.627Z,-1.31
2022-12-18T16:09:55.473Z,-1.23
2022-12-18T16:12:26.338Z,-1.27
2022-12-18T16:14:54.287Z,-1.29
2022-12-18T16:17:24.372Z,-1.20
2022-12-18T16:19:54.593Z,-1.16
2022-12-18T16:22:27.689Z,-1.13
2022-12-18T16:24:57.671Z,-1.13
2022-12-18T16:27:26.645Z,-1.21
2022-12-18T16:29:56.983Z,-1.32
2022-12-18T16:32:24.995Z,-1.33
2022-12-18T16:34:52.929Z,-1.38
2022-12-18T16:37:20.775Z,-1.42
2022-12-18T16:39:50.048Z,-1.44
2022-12-18T16:42:20.162Z,-1.19
2022-12-18T16:44:49.695Z,-1.11
2022-12-18T16:47:18.377Z,-1.07
2022-12-18T16:49:46.680Z,-1.17
2022-12-18T16:52:15.455Z,-1.19
2022-12-18T16:54:43.354Z,-1.25
2022-12-18T16:57:14.724Z,-1.22
2022-12-18T16:59:42.650Z,-1.20
2022-12-18T17:02:15.639Z,-1.24
2022-12-18T17:04:45.677Z,-1.33
2022-12-18T17:07:14.511Z,-1.24
2022-12-18T17:09:42.600Z,-1.37
2022-12-18T17:12:12.156Z,-1.39
2022-12-18T17:14:40.456Z,-1.34
2022-12-18T17:17:21.026Z,-1.38
2022-12-18T17:19:49.571Z,-1.40
2022-12-18T17:22:17.589Z,-1.43
2022-12-18T17:24:45.682Z,-1.56
2022-12-18T17:27:14.957Z,-1.54
2022-12-18T17:29:47.288Z,-1.57
2022-12-18T17:32:16.298Z,-1.51
2022-12-18T17:34:44.558Z,-1.62
2022-12-18T17:37:12.518Z,-1.52
2022-12-18T17:39:42.032Z,-1.49
2022-12-18T17:42:11.503Z,-1.52
2022-12-18T17:44:45.459Z,-1.52
2022-12-18T17:47:14.101Z,-1.58
2022-12-18T17:49:42.105Z,-1.54
2022-12-18T17:52:10.211Z,-1.55
2022-12-18T17:54:41.863Z,-1.58
2022-12-18T17:57:10.407Z,-1.55
2022-12-18T17:59:40.934Z,-1.64
2022-12-18T18:02:12.518Z,-1.61
2022-12-18T18:04:40.745Z,-1.55
2022-12-18T18:07:08.707Z,-1.43
2022-12-18T18:09:36.660Z,-1.62
2022-12-18T18:12:33.783Z,-1.70
2022-12-18T18:15:04.260Z,-1.50
2022-12-18T18:17:33.689Z,-1.63
2022-12-18T18:20:01.545Z,-1.58
2022-12-18T18:22:29.803Z,-1.84
2022-12-18T18:24:58.158Z,-1.84
2022-12-18T18:27:26.143Z,-1.67
2022-12-18T18:29:54.726Z,-1.69
2022-12-18T18:32:22.653Z,-1.68
2022-12-18T18:34:55.064Z,-1.64
2022-12-18T18:37:23.228Z,-1.62
2022-12-18T18:39:51.271Z,-1.73
2022-12-18T18:42:19.092Z,-1.87
2022-12-18T18:44:49.090Z,-1.74
2022-12-18T18:47:17.160Z,-1.74
2022-12-18T18:49:45.105Z,-1.86
2022-12-18T18:52:14.493Z,-1.77
2022-12-18T18:55:03.798Z,-1.79
2022-12-18T18:57:30.889Z,-1.62
2022-12-18T18:59:58.720Z,-1.59
2022-12-18T19:02:26.806Z,-1.67
2022-12-18T19:04:54.789Z,-1.72
2022-12-18T19:07:30.755Z,-1.74
2022-12-18T19:10:04.035Z,-1.74
2022-12-18T19:12:50.887Z,-1.72
2022-12-18T19:15:18.813Z,-1.65
2022-12-18T19:17:47.471Z,-1.64
2022-12-18T19:20:16.118Z,-1.74
2022-12-18T19:22:48.590Z,-1.53
2022-12-18T19:25:40.043Z,-1.47
2022-12-18T19:28:15.357Z,-1.56
2022-12-18T19:30:57.318Z,-1.71
2022-12-18T19:33:46.121Z,-1.57
2022-12-18T19:36:20.194Z,-1.45
2022-12-18T19:38:50.984Z,-1.67
2022-12-18T19:41:20.603Z,-1.70
2022-12-18T19:43:49.954Z,-1.66
2022-12-18T19:46:19.348Z,-1.52
2022-12-18T19:48:48.827Z,-1.51
2022-12-18T19:51:19.082Z,-1.65
2022-12-18T19:53:47.973Z,-1.60
2022-12-18T19:56:19.388Z,-1.53
2022-12-18T19:58:47.889Z,-1.44
2022-12-18T20:01:18.060Z,-1.53
2022-12-18T20:03:51.700Z,-1.58
2022-12-18T20:06:28.000Z,-1.36
2022-12-18T20:09:00.267Z,-1.44
2022-12-18T20:11:30.680Z,-1.61
2022-12-18T20:13:59.487Z,-1.54
2022-12-18T20:16:27.797Z,-1.55
2022-12-18T20:18:56.031Z,-1.45
2022-12-18T20:21:25.196Z,-1.63
2022-12-18T20:23:53.190Z,-1.63
2022-12-18T20:26:21.097Z,-1.46
2022-12-18T20:28:50.309Z,-1.46
2022-12-18T20:31:20.655Z,-1.64
2022-12-18T20:33:51.053Z,-1.42
2022-12-18T20:36:23.564Z,-1.38
2022-12-18T20:38:57.209Z,-1.50
2022-12-18T20:41:35.020Z,-1.32
2022-12-18T20:44:10.464Z,-1.47
2022-12-18T20:46:50.620Z,-1.39
2022-12-18T20:49:18.566Z,-1.37
2022-12-18T20:51:46.515Z,-1.39
2022-12-18T20:54:14.352Z,-1.39
2022-12-18T20:56:42.192Z,-1.48
2022-12-18T20:59:11.748Z,-1.36
2022-12-18T21:01:39.918Z,-1.42
2022-12-18T21:04:15.353Z,-1.37
2022-12-18T21:06:49.423Z,-1.37
2022-12-18T21:09:23.558Z,-1.19
2022-12-18T21:12:08.857Z,-1.18
2022-12-18T21:14:41.240Z,-1.28
2022-12-18T21:17:09.246Z,-1.31
2022-12-18T21:19:37.791Z,-1.24
2022-12-18T21:22:06.236Z,-1.09
2022-12-18T21:24:34.097Z,-1.19
2022-12-18T21:27:03.571Z,-1.12
2022-12-18T21:29:31.648Z,-1.29
2022-12-18T21:32:01.552Z,-1.21
2022-12-18T21:34:34.221Z,-1.41
2022-12-18T21:37:02.733Z,-1.47
2022-12-18T21:39:31.853Z,-1.62
2022-12-18T21:42:17.830Z,-1.47
2022-12-18T21:44:48.944Z,-1.34
2022-12-18T21:47:22.387Z,-1.26
2022-12-18T21:49:53.583Z,-1.27
2022-12-18T21:52:31.169Z,-1.23
2022-12-18T21:55:09.550Z,-1.28
2022-12-18T21:57:39.227Z,-1.31
2022-12-18T22:00:19.328Z,-1.28
2022-12-18T22:03:00.496Z,-1.08
2022-12-18T22:05:37.420Z,-1.22
2022-12-18T22:08:06.791Z,-1.12
2022-12-18T22:10:34.897Z,-1.12
2022-12-18T22:13:05.049Z,-1.00
2022-12-18T22:15:33.314Z,-1.05
2022-12-18T22:18:02.456Z,-1.12
2022-12-18T22:20:30.438Z,-1.22
2022-12-18T22:22:58.538Z,-1.32
2022-12-18T22:25:26.941Z,-1.42
2022-12-18T22:28:12.626Z,-1.36
2022-12-18T22:30:40.562Z,-1.31
2022-12-18T22:33:09.844Z,-1.35
2022-12-18T22:35:37.692Z,-1.38
2022-12-18T22:38:06.375Z,-1.18
2022-12-18T22:40:37.109Z,-1.09
2022-12-18T22:43:05.133Z,-0.99
2022-12-18T22:45:33.075Z,-1.04
2022-12-18T22:48:05.646Z,-0.94
2022-12-18T22:50:34.897Z,-1.01
2022-12-18T22:53:02.816Z,-1.05
2022-12-18T22:55:30.865Z,-0.94
2022-12-18T22:57:58.760Z,-1.08
2022-12-18T23:00:26.930Z,-0.95
2022-12-18T23:03:00.287Z,-0.81
2022-12-18T23:05:30.558Z,-0.82
2022-12-18T23:08:00.138Z,-0.87
2022-12-18T23:10:28.718Z,-0.74
2022-12-18T23:12:56.573Z,-0.71
2022-12-18T23:15:27.961Z,-0.70
2022-12-18T23:17:58.561Z,-0.59
2022-12-18T23:20:27.183Z,-0.55
2022-12-18T23:22:55.190Z,-0.61
2022-12-18T23:25:24.813Z,-0.53
2022-12-18T23:27:53.109Z,-0.48
2022-12-18T23:30:20.993Z,-0.57
2022-12-18T23:32:48.863Z,-0.45
2022-12-18T23:35:16.986Z,-0.36
2022-12-18T23:38:00.955Z,-0.44
2022-12-18T23:40:30.991Z,-0.34
2022-12-18T23:43:01.265Z,-0.56
2022-12-18T23:45:34.169Z,-0.58
2022-12-18T23:48:02.225Z,-0.38
2022-12-18T23:50:32.167Z,-0.45
2022-12-18T23:53:05.311Z,-0.34
2022-12-18T23:55:40.418Z,-0.28
2022-12-18T23:58:16.648Z,-0.76
